Richard Barnes

Chefscout - Bradford City
3 Apr 2027
Samstag
Verarbeitung

Persönlichkeit

Anpassungsfähigkeit (9) Ehrgeiz (8) Kontroverse (12) Loyalität (7) Druck (16) Professionalität (7) Fairness (3) Temperament (1)

Profil

Trainerstil Demokratisch
Lizenz Kontinentale A
Entschlossenheit 4
Menschenführung 7
Motivation 10
Disziplin 7
Arbeitszufriedenheit
100%
Ermüdung
0%
Rolle Chefscout
Gehalt 71.1K p/W
Vertrag 14.03.2029

Leistung

Verhalten Gut
Trainingseffektivität
28%
Spielerentwicklung
20%
Verletzungsprävention
25%
Taktische Umsetzung
30%

Letzte Ereignisse

Spieler begutachtet jetzt
Nahm an einer Scouting-Besprechung teil jetzt
Empfahl ein Transferziel jetzt
Empfahl ein Transferziel 7T her
Spieler begutachtet 7T her
Spieler begutachtet 7T her
Spieler begutachtet 7T her
Spieler begutachtet 7T her

Aktuell beobachtet

168
Spieler Verein Status Fähigkeit Vertrauen Beobachtet Zuletzt beobachtet Letzte Stimme
Louis Appéré Cambridge United Aktiv 89 / 97 40% 1 01.04.2027 -
Rody Junior Effaghe Aris Aktiv 116 / 129 40% 1 01.04.2027 -
Johnson Amuzu Berekum Chelsea Aktiv 79 / 97 40% 1 01.04.2027 -
Mohamed Mallahi Pro Vercelli Aktiv 108 / 104 40% 2 30.03.2027 -
Migran Ageyan Ufa Aktiv 94 / 88 40% 1 30.03.2027 -
Vladislav Yakovlev Volga Aktiv 97 / 82 40% 1 30.03.2027 -
Ekain Orobengoa Real Sociedad Aktiv 96 / 92 40% 3 29.03.2027 -
Paul Glatzel Swindon Town Aktiv 103 / 93 40% 1 29.03.2027 -
Alexandr Saplinov Volga Aktiv 105 / 101 40% 3 28.03.2027 -
Guillermo Bassi Lokomotiv Plovdiv Aktiv 94 / 90 40% 2 28.03.2027 -
Samson Olasupo Remo Stars Aktiv 106 / 112 40% 1 28.03.2027 -
Matty Stevens AFC Wimbledon Aktiv 108 / 97 40% 7 27.03.2027 -
Dmitry Tsypchenko Torpedo Moscow Aktiv 102 / 112 40% 2 27.03.2027 -
Giacomo Zecca Torres Aktiv 110 / 98 40% 1 27.03.2027 -
Lewis McCann Fleetwood Town Aktiv 104 / 87 40% 2 26.03.2027 -
Leon Sabua Fakel Aktiv 94 / 105 40% 1 26.03.2027 -
Aaron Drinan Swindon Town Aktiv 99 / 105 40% 4 24.03.2027 -
Dilan Ortíz Ufa Aktiv 107 / 101 40% 6 24.03.2027 -
Jacopo Desogus AlbinoLeffe Aktiv 107 / 94 40% 2 24.03.2027 -
Martin Sekulić Ural Aktiv 115 / 119 40% 4 22.03.2027 -
Solly Khunyedi Bloemfontein Celtic Aktiv 87 / 95 40% 4 22.03.2027 -
Mohamed Konaté Akhmat Grozny Aktiv 115 / 114 40% 3 20.03.2027 -
Mésaque Djú Portimonense Aktiv 98 / 98 40% 1 20.03.2027 -
Robert Mizo Remo Stars Aktiv 94 / 87 40% 4 18.03.2027 -
Luca Fabrizi Pianese Aktiv 105 / 106 40% 2 18.03.2027 -
Alex Morales Swindon Town Aktiv 100 / 86 40% 1 18.03.2027 -
Kane Drummond Oldham Athletic Aktiv 91 / 96 40% 3 14.03.2027 -
Sam Nombe Milton Keynes Dons Aktiv 112 / 123 40% 4 14.03.2027 -
Edarlyn Reyes Arsenal Tula Aktiv 110 / 101 40% 1 14.03.2027 -
Marcus Browne AFC Wimbledon Aktiv 115 / 110 40% 2 13.03.2027 -
Jefferson Palacios Ermis Aktiv 95 / 76 40% 1 13.03.2027 -
Miro Dinamo Makhachkala Aktiv 115 / 118 40% 1 13.03.2027 -
Mykola Haiduchyk Polissia Aktiv 108 / 115 40% 2 10.03.2027 -
Gustavo Rigazzi Metalist Aktiv 86 / 90 40% 1 10.03.2027 -
Yurii Klymchuk Kolos Aktiv 118 / 116 40% 3 07.03.2027 -
Danyil Alefirenko Chornomorets Aktiv 107 / 113 40% 3 07.03.2027 -
Ilja Safronov Rotor Aktiv 103 / 109 40% 6 06.03.2027 -
Simone Ianesi Pianese Aktiv 108 / 104 40% 2 06.03.2027 -
Rivaldo Ngcobo Free State Stars Aktiv 111 / 117 40% 9 05.03.2027 -
Andrea Mattioli Arzignano Aktiv 106 / 104 40% 1 05.03.2027 -
Seb Palmer-Houlden Gillingham Aktiv 88 / 89 40% 2 04.03.2027 -
Jerome Karelse Golden Arrows Aktiv 99 / 114 40% 2 03.03.2027 -
Brandon Hanlan Doncaster Rovers Aktiv 96 / 89 40% 4 03.03.2027 -
Kamran Aliev SKA Khabarovsk Aktiv 97 / 101 40% 2 02.03.2027 -
Andrii Khoma Chornomorets Aktiv 103 / 102 40% 3 02.03.2027 -
Piotr Samiec-Talar Slask Aktiv 104 / 112 40% 3 01.03.2027 -
Ihor Krasnopir Polissia Aktiv 124 / 119 40% 1 01.03.2027 -
Tyrese Shade Burton Albion Aktiv 98 / 86 40% 1 28.02.2027 -
Danila Shilov Dinamo Stavropol Aktiv 90 / 85 40% 1 25.02.2027 -
Kostiantyn Bychek Kudrivka Aktiv 103 / 93 40% 1 24.02.2027 -
Milan Vidakov Radnicki 1923 Aktiv 102 / 97 40% 1 23.02.2027 -
Oleh Kozhushko Bukovyna Aktiv 113 / 106 40% 1 22.02.2027 -
Jonathan Okoronkwo Torpedo Moscow Aktiv 98 / 112 40% 1 20.02.2027 -
Naledi Hlongwane Victoria United Aktiv 97 / 107 40% 1 19.02.2027 -
Denys Ustymenko Obolon Aktiv 103 / 98 40% 2 16.02.2027 -
Vladyslav Vakula Obolon Aktiv 102 / 90 40% 1 15.02.2027 -
Sibusiso Tshabalala Polokwane City Aktiv 75 / 101 40% 1 13.02.2027 -
Daniil Kondrakov KDV Tomsk Aktiv 89 / 83 40% 2 11.02.2027 -
Midana Cassamá Portimonense Aktiv 98 / 108 40% 2 11.02.2027 -
Georg Stojanovski Spartak 1918 Aktiv 90 / 97 40% 1 08.02.2027 -
Vinicius Baiano Naxxar Lions Aktiv 97 / 100 40% 1 05.02.2027 -
Dramane Kamagaté USM Alger Aktiv 115 / 123 40% 1 05.02.2027 -
Luther Zwane Platinum Stars Aktiv 92 / 101 40% 1 04.02.2027 -
Chico Banza Zamalek Aktiv 108 / 115 40% 2 03.02.2027 -
Celso Sidney Cherno More Aktiv 105 / 102 40% 2 02.02.2027 -
Fábio Tavares Newport County Aktiv 98 / 108 40% 1 02.02.2027 -
Anthony Lokosa Tarxien Rainbows Aktiv 94 / 99 40% 2 26.01.2027 -
Makabi Lilepo Kaizer Chiefs Aktiv 102 / 103 40% 1 26.01.2027 -
Charlie Whitaker Tranmere Rovers Aktiv 105 / 112 62% 1 25.01.2027 Befürworten
Daniil Agureev Amkar Aktiv 83 / 91 40% 1 22.01.2027 -
Alessio Nepi Perugia Aktiv 114 / 115 40% 1 21.01.2027 -
Carlos Paraco Metalist Aktiv 119 / 120 40% 4 19.01.2027 -
Kirill Bogdanets Volna Aktiv 85 / 79 40% 1 19.01.2027 -
Ardit Tahiri Kolos Aktiv 109 / 105 40% 2 18.01.2027 -
Samuel Amoah Liberty Professionals Aktiv 99 / 104 40% 1 31.12.2026 -
Jorge Padilla Cherno More Aktiv 108 / 96 40% 1 30.12.2026 -
Luca Martínez Dupuy Godoy Cruz Abgelehnt 124 / 108 40% 2 28.12.2026 Mehr Infos nötig
Papa Ndiaga Yade Oleksandriya Abgelehnt 105 / 94 40% 1 21.12.2026 Mehr Infos nötig
Fran Brodić MFK Ruzomberok Abgelehnt 118 / 115 40% 1 20.12.2026 Mehr Infos nötig
Alexandr Dolgov Amkar Aktiv 102 / 94 40% 3 18.12.2026 -
Duván Riascos Jihlava Aktiv 97 / 97 40% 1 18.12.2026 -
Sebastian Soto ES Ben Aknoun Aktiv 106 / 84 40% 1 16.12.2026 -
Mahir Abdullayev AZAL Aktiv 95 / 109 40% 1 13.12.2026 -
Salah Mohsen El Masry Aktiv 109 / 117 40% 1 11.12.2026 -
James Emo Rangers International Aktiv 83 / 85 40% 1 11.12.2026 -
Jay-Roy Grot OB Abgelehnt 124 / 128 40% 1 09.12.2026 Mehr Infos nötig
Albek Gongapshev Shinnik Aktiv 100 / 102 40% 1 08.12.2026 -
Thiago Calone All Boys Abgelehnt 125 / 93 40% 2 07.12.2026 Mehr Infos nötig
Timothy Zechariah Rivers United Aktiv 101 / 77 40% 1 06.12.2026 -
Beryly Lubala CSKA 1948 Aktiv 106 / 102 40% 1 05.12.2026 -
Jack Vale Alcione Milano Aktiv 84 / 97 40% 2 04.12.2026 -
Peter Itodo Metalist Aktiv 117 / 107 40% 2 04.12.2026 -
Lazar Mijović Cukaricki Aktiv 100 / 97 40% 2 01.12.2026 -
Jeremy Rafanello Philadelphia Union Aktiv 113 / 110 40% 3 30.11.2026 -
Suleiman Abdullahi Military Production Aktiv 89 / 101 40% 2 29.11.2026 -
Marcelo Torres Gimnasia La Plata Aktiv 127 / 110 40% 3 28.11.2026 -
Ivan Delić Dugopolje Aktiv 101 / 87 40% 1 27.11.2026 -
Benji Kikanović San Jose Earthquakes Aktiv 100 / 90 40% 1 27.11.2026 -
Moses Twum Haras El Hodoud Aktiv 89 / 95 40% 1 26.11.2026 -
Wandile Duba Bidvest Wits Aktiv 87 / 108 40% 2 20.11.2026 -
Andrija Majdevac Napredak Aktiv 97 / 96 40% 1 20.11.2026 -
Joel Fameyeh Puskas Akademia Aktiv 107 / 101 40% 1 17.11.2026 -
Yaroslav Karabin Karpaty Aktiv 113 / 114 40% 1 16.11.2026 -
CJ Fodrey Austin FC Aktiv 100 / 90 40% 2 15.11.2026 -
Matěj Pulkrab Teplice Aktiv 107 / 112 40% 1 13.11.2026 -
Aaron Spetale AGF Aktiv 128 / 106 40% 2 10.11.2026 -
Facundo Krüger Temperley Aktiv 125 / 101 40% 1 10.11.2026 -
Lucio Castillo Colegiales Aktiv 99 / 88 40% 1 09.11.2026 -
Woobens Pacius Nashville SC Aktiv 89 / 100 40% 1 08.11.2026 -
Matyáš Kozák Teplice Aktiv 117 / 122 40% 1 07.11.2026 -
Patrick Schmidt Tarxien Rainbows Aktiv 99 / 102 40% 1 06.11.2026 -
Abubakar Garba Nasarawa United Aktiv 103 / 111 40% 1 06.11.2026 -
Roald Mitchell New York Red Bulls Aktiv 91 / 101 40% 2 04.11.2026 -
Enzo Avaro Mitre Aktiv 113 / 125 40% 2 04.11.2026 -
Alexander Lyng SonderjyskE Aktiv 101 / 138 40% 1 02.11.2026 -
John Okoye Ebuka Ittihad Aktiv 127 / 121 40% 1 01.11.2026 -
Alberto Soro Dinamo Bucharest Aktiv 125 / 106 40% 1 31.10.2026 -
Ismaïl Seydi SonderjyskE Aktiv 102 / 79 40% 1 29.10.2026 -
Kwame Opoku Asante Kotoko Aktiv 83 / 96 40% 2 28.10.2026 -
Michalis Kosidis Zaglebie Aktiv 105 / 109 40% 1 28.10.2026 -
Fabrizio Sartori Independiente Rivadavia Aktiv 113 / 114 40% 2 24.10.2026 -
Kenji Mboma Dem FC Cincinnati Aktiv 97 / 106 40% 1 20.10.2026 -
Amos Inusah Wa All Stars Aktiv 123 / 133 40% 1 20.10.2026 -
Prince Ukachukwu Kano Pillars Aktiv 82 / 94 40% 1 19.10.2026 -
Patrik Mijić HNK Gorica Aktiv 107 / 109 40% 1 18.10.2026 -
Chukwuemeka Obioma Abia Warriors Aktiv 103 / 97 40% 2 17.10.2026 -
Alex Mighten San Diego Football Club Aktiv 88 / 111 40% 1 15.10.2026 -
Yu Tsukanome Seattle Sounders Aktiv 89 / 93 40% 1 14.10.2026 -
Maclyn Biokpo Jenewari Rivers United Aktiv 110 / 102 40% 3 13.10.2026 -
Taylor Calheira Sporting Kansas City Aktiv 98 / 108 40% 1 10.10.2026 -
Marcus Caldeira Minnesota United FC Aktiv 105 / 91 40% 1 09.10.2026 -
Victor Mbaoma Tusker Aktiv 99 / 86 40% 1 09.10.2026 -
Lautaro Gordillo Colegiales Aktiv 112 / 102 40% 1 08.10.2026 -
Oke Kayode Bendel Insurance Aktiv 80 / 82 40% 1 07.10.2026 -
Cristian Barros Cerro Aktiv 118 / 94 40% 1 07.10.2026 -
Daniel Vašulín Zbrojovka Brno Aktiv 120 / 107 40% 1 06.10.2026 -
Ismail Sarki Niger Tornadoes Aktiv 99 / 89 40% 2 30.09.2026 -
Juan Cruz Zurbriggen San Telmo Aktiv 87 / 111 40% 1 30.09.2026 -
Renzo Reynaga Patronato Aktiv 105 / 113 40% 1 27.09.2026 -
Marcus Vinicius Deportivo Pereira Aktiv 97 / 128 40% 1 26.09.2026 -
Michael Vadulli Audax Italiano Aktiv 125 / 102 40% 1 24.09.2026 -
Maicol Ferreira Danubio Aktiv 105 / 118 40% 2 21.09.2026 -
Shuaibu Ibrahim Wikki Tourists Aktiv 101 / 79 40% 1 21.09.2026 -
Samuel Anakwe Remo Stars Aktiv 82 / 115 40% 2 20.09.2026 -
Anthony Scully Admira Wacker Aktiv 93 / 87 40% 1 20.09.2026 -
Ruyery Blanco Alianza Petrolera Aktiv 119 / 108 40% 1 19.09.2026 -
Fernando Mimbacas Juventud Aktiv 94 / 107 40% 2 16.09.2026 -
Ezequiel Almirón Estudiantes Aktiv 99 / 98 40% 1 15.09.2026 -
Ivo Costantino Danubio Aktiv 105 / 113 40% 1 15.09.2026 -
Esteban da Silva Racing Aktiv 100 / 119 40% 1 13.09.2026 -
Ariath Piol Real Salt Lake Aktiv 99 / 91 40% 1 13.09.2026 -
Ibrahim Aliyu Houston Dynamo Aktiv 102 / 110 40% 2 11.09.2026 -
Bautista Arricau OB Aktiv 115 / 87 40% 1 11.09.2026 -
Joseph Atule Barau Aktiv 92 / 108 40% 1 10.09.2026 -
Jack Lynn San Jose Earthquakes Aktiv 111 / 118 40% 1 09.09.2026 -
Themba Manyama Ajax Cape Town Aktiv 99 / 103 40% 1 09.09.2026 -
Jay Rodriguez Wrexham Aktiv 110 / 95 58% 1 31.08.2026 Befürworten
Antoine Griezmann Orlando City Aktiv 145 / 146 40% 2 30.08.2026 -
Samuel Tetteh Wa All Stars Aktiv 101 / 115 40% 1 30.08.2026 -
Chukwudi Okoro Nasarawa United Aktiv 77 / 96 40% 1 28.08.2026 -
Anderson Plata Aktiv 103 / 129 40% 1 27.08.2026 -
Esteban Obregón Montevideo City Torque Aktiv 116 / 109 40% 1 27.08.2026 -
Majeed Waris JS Kabylie Aktiv 125 / 119 40% 1 25.08.2026 -
Justice Figuareido Chippa United Aktiv 70 / 71 40% 1 23.08.2026 -
Flávio Silva Kaizer Chiefs Aktiv 87 / 113 40% 1 23.08.2026 -
Robin Lod Chicago Fire Aktiv 122 / 141 40% 1 22.08.2026 -
Gift Motupa Bloemfontein Celtic Aktiv 100 / 98 40% 1 20.08.2026 -
Luke Baartman Chippa United Aktiv 116 / 124 40% 1 19.08.2026 -